Terminal Aerodrome Forecast
Issued by NWS

Home | Current Version | Previous Version | Text Only | Print | Product List | Glossary On
Versions: 1 2 3 4 5 6 7 8 9 10
000
FTUS42 TJSJ 260500 RRA
TAFNCM
TAF
TNCM 260543Z 2606/2706 09012G25KT P6SM VCSH SCT018 SCT025
     FM261400 07012KT P6SM FEW020=

USA.gov is the U.S. government's official web portal to all federal, state and local government web resources and services.